createdAt,value
2023-04-07T00:01:54.401Z,11.05
2023-04-07T00:04:21.061Z,9.82
2023-04-07T00:06:47.747Z,9.85
2023-04-07T00:09:14.315Z,10.13
2023-04-07T00:11:40.842Z,9.30
2023-04-07T00:14:07.455Z,9.90
2023-04-07T00:16:34.020Z,12.27
2023-04-07T00:19:00.559Z,9.77
2023-04-07T00:21:27.196Z,9.80
2023-04-07T00:23:53.947Z,11.93
2023-04-07T00:26:21.137Z,8.27
2023-04-07T00:28:47.829Z,9.13
2023-04-07T00:31:14.641Z,9.60
2023-04-07T00:33:41.390Z,10.05
2023-04-07T00:36:07.982Z,10.18
2023-04-07T00:38:34.487Z,9.27
2023-04-07T00:41:01.294Z,12.10
2023-04-07T00:43:27.849Z,11.65
2023-04-07T00:45:54.513Z,12.25
2023-04-07T00:48:21.423Z,9.55
2023-04-07T00:50:47.956Z,11.25
2023-04-07T00:53:14.524Z,10.18
2023-04-07T00:55:41.322Z,10.10
2023-04-07T00:58:09.221Z,11.95
2023-04-07T01:00:44.349Z,9.75
2023-04-07T01:03:18.914Z,10.60
2023-04-07T01:05:56.416Z,12.75
2023-04-07T01:08:43.916Z,10.25
2023-04-07T01:11:21.845Z,10.55
2023-04-07T01:13:51.006Z,10.52
2023-04-07T01:16:48.286Z,10.60
2023-04-07T01:19:51.323Z,10.77
2023-04-07T01:22:23.782Z,10.35
2023-04-07T01:25:17.169Z,13.45
2023-04-07T01:28:02.474Z,9.85
2023-04-07T01:30:32.129Z,11.05
2023-04-07T01:33:00.034Z,10.88
2023-04-07T01:35:28.158Z,12.50
2023-04-07T01:37:56.093Z,9.52
2023-04-07T01:40:23.007Z,9.65
2023-04-07T01:42:49.961Z,10.63
2023-04-07T01:45:16.973Z,10.20
2023-04-07T01:47:44.118Z,10.05
2023-04-07T01:50:12.051Z,11.80
2023-04-07T01:52:40.006Z,13.35
2023-04-07T01:55:07.225Z,9.90
2023-04-07T01:57:39.258Z,13.32
2023-04-07T02:00:12.767Z,10.68
2023-04-07T02:02:44.665Z,10.77
2023-04-07T02:05:14.113Z,10.82
2023-04-07T02:07:56.105Z,10.65
2023-04-07T02:10:26.220Z,11.75
2023-04-07T02:12:57.066Z,13.73
2023-04-07T02:15:24.541Z,11.65
2023-04-07T02:17:52.996Z,12.40
2023-04-07T02:20:21.049Z,13.00
2023-04-07T02:22:48.079Z,15.15
2023-04-07T02:25:28.861Z,13.57
2023-04-07T02:27:57.198Z,14.30
2023-04-07T02:30:24.051Z,14.73
2023-04-07T02:32:50.935Z,13.25
2023-04-07T02:35:17.502Z,16.95
2023-04-07T02:37:45.017Z,14.68
2023-04-07T02:40:11.803Z,13.48
2023-04-07T02:42:38.642Z,14.18
2023-04-07T02:45:06.018Z,13.88
2023-04-07T02:47:33.497Z,12.95
2023-04-07T02:50:00.300Z,12.88
2023-04-07T02:52:26.852Z,14.18
2023-04-07T02:54:53.769Z,14.93
2023-04-07T02:57:23.957Z,13.13
2023-04-07T02:59:55.190Z,13.88
2023-04-07T03:02:23.272Z,14.38
2023-04-07T03:04:51.975Z,13.65
2023-04-07T03:07:19.363Z,12.73
2023-04-07T03:09:46.677Z,16.20
2023-04-07T03:12:14.726Z,12.98
2023-04-07T03:14:41.247Z,11.95
2023-04-07T03:17:08.084Z,9.90
2023-04-07T03:19:35.351Z,13.25
2023-04-07T03:22:01.900Z,14.30
2023-04-07T03:24:33.910Z,13.18
2023-04-07T03:27:02.297Z,12.88
2023-04-07T03:29:38.593Z,15.18
2023-04-07T03:32:08.043Z,11.07
2023-04-07T03:34:34.665Z,13.82
2023-04-07T03:37:01.157Z,10.98
2023-04-07T03:39:31.022Z,12.35
2023-04-07T03:42:00.101Z,15.90
2023-04-07T03:44:30.275Z,13.20
2023-04-07T03:46:56.812Z,12.05
2023-04-07T03:49:24.537Z,12.48
2023-04-07T03:51:51.636Z,12.50
2023-04-07T03:54:19.455Z,12.05
2023-04-07T03:56:46.215Z,11.18
2023-04-07T03:59:15.455Z,12.48
2023-04-07T04:01:53.027Z,13.73
2023-04-07T04:04:19.640Z,12.20
2023-04-07T04:06:46.146Z,13.50
2023-04-07T04:09:24.860Z,13.57
2023-04-07T04:11:51.464Z,10.73
2023-04-07T04:14:18.640Z,10.50
2023-04-07T04:16:52.162Z,11.60
2023-04-07T04:19:29.619Z,14.32
2023-04-07T04:21:58.246Z,12.85
2023-04-07T04:24:26.391Z,11.77
2023-04-07T04:26:57.178Z,14.32
2023-04-07T04:29:23.698Z,14.70
2023-04-07T04:31:50.708Z,12.43
2023-04-07T04:34:17.494Z,14.57
2023-04-07T04:36:45.155Z,12.32
2023-04-07T04:39:11.951Z,10.43
2023-04-07T04:41:39.410Z,11.68
2023-04-07T04:44:07.043Z,11.43
2023-04-07T04:46:33.921Z,10.65
2023-04-07T04:49:00.724Z,12.57
2023-04-07T04:51:28.012Z,13.00
2023-04-07T04:54:00.852Z,15.38
2023-04-07T04:56:27.904Z,13.30
2023-04-07T04:58:54.494Z,9.80
2023-04-07T05:01:33.611Z,11.10
2023-04-07T05:04:10.408Z,11.30
2023-04-07T05:06:40.970Z,10.48
2023-04-07T05:09:11.064Z,14.03
2023-04-07T05:11:42.966Z,11.93
2023-04-07T05:14:09.590Z,11.88
2023-04-07T05:16:39.719Z,10.88
2023-04-07T05:19:06.877Z,13.75
2023-04-07T05:21:33.354Z,12.95
2023-04-07T05:24:03.036Z,13.38
2023-04-07T05:26:31.855Z,13.15
2023-04-07T05:28:59.580Z,13.40
2023-04-07T05:31:26.142Z,15.18
2023-04-07T05:33:56.077Z,14.23
2023-04-07T05:36:25.603Z,11.63
2023-04-07T05:38:55.712Z,12.43
2023-04-07T05:41:22.400Z,17.63
2023-04-07T05:43:49.127Z,12.40
2023-04-07T05:46:17.073Z,15.85
2023-04-07T05:48:51.846Z,15.00
2023-04-07T05:51:19.572Z,11.82
2023-04-07T05:53:46.125Z,13.10
2023-04-07T05:56:12.639Z,12.38
2023-04-07T05:58:43.556Z,15.82
2023-04-07T06:01:11.299Z,14.02
2023-04-07T06:03:38.057Z,18.83
2023-04-07T06:06:12.623Z,13.98
2023-04-07T06:08:39.210Z,12.80
2023-04-07T06:11:06.116Z,15.77
2023-04-07T06:13:33.691Z,13.35
2023-04-07T06:16:00.255Z,12.63
2023-04-07T06:18:26.746Z,13.80
2023-04-07T06:20:53.226Z,14.98
2023-04-07T06:23:19.743Z,14.10
2023-04-07T06:25:46.388Z,16.15
2023-04-07T06:28:12.869Z,13.15
2023-04-07T06:30:41.004Z,13.05
2023-04-07T06:33:10.823Z,15.68
2023-04-07T06:35:39.366Z,12.35
2023-04-07T06:38:07.431Z,15.85
2023-04-07T06:40:33.960Z,13.57
2023-04-07T06:43:00.462Z,12.85
2023-04-07T06:45:33.336Z,12.63
2023-04-07T06:48:00.016Z,13.35
2023-04-07T06:50:26.573Z,12.75
2023-04-07T06:52:53.269Z,16.00
2023-04-07T06:55:19.772Z,15.07
2023-04-07T06:57:46.289Z,13.40
2023-04-07T07:00:12.937Z,13.35
2023-04-07T07:02:39.587Z,14.60
2023-04-07T07:05:07.053Z,13.45
2023-04-07T07:07:33.533Z,13.85
2023-04-07T07:09:59.987Z,12.82
2023-04-07T07:12:26.496Z,13.18
2023-04-07T07:14:53.003Z,11.88
2023-04-07T07:17:19.526Z,12.75
2023-04-07T07:19:46.014Z,13.57
2023-04-07T07:22:12.506Z,12.50
2023-04-07T07:24:39.035Z,13.15
2023-04-07T07:27:05.541Z,12.27
2023-04-07T07:29:32.144Z,12.85
2023-04-07T07:31:58.638Z,13.20
2023-04-07T07:34:25.278Z,16.88
2023-04-07T07:36:51.826Z,10.60
2023-04-07T07:39:18.342Z,16.02
2023-04-07T07:41:45.331Z,12.57
2023-04-07T07:44:11.859Z,11.85
2023-04-07T07:46:38.434Z,13.38
2023-04-07T07:49:05.864Z,13.95
2023-04-07T07:51:32.410Z,12.63
2023-04-07T07:53:59.005Z,12.43
2023-04-07T07:56:25.573Z,12.45
2023-04-07T07:58:52.224Z,12.95
2023-04-07T08:01:18.822Z,14.18
2023-04-07T08:03:45.946Z,13.00
2023-04-07T08:06:13.026Z,13.10
2023-04-07T08:08:39.542Z,10.98
2023-04-07T08:11:06.192Z,12.50
2023-04-07T08:13:32.884Z,11.55
2023-04-07T08:15:59.397Z,12.98
2023-04-07T08:18:25.954Z,10.07
2023-04-07T08:20:52.741Z,10.00
2023-04-07T08:23:19.317Z,9.65
2023-04-07T08:25:45.804Z,13.63
2023-04-07T08:28:12.436Z,9.68
2023-04-07T08:30:39.017Z,12.20
2023-04-07T08:33:06.450Z,11.02
2023-04-07T08:35:32.973Z,11.00
2023-04-07T08:37:59.521Z,10.40
2023-04-07T08:40:26.337Z,8.40
2023-04-07T08:42:53.312Z,11.25
2023-04-07T08:45:20.028Z,11.80
2023-04-07T08:47:48.022Z,10.40
2023-04-07T08:50:17.227Z,9.85
2023-04-07T08:52:57.480Z,9.05
2023-04-07T08:55:24.139Z,7.13
2023-04-07T08:57:51.448Z,10.43
2023-04-07T09:00:18.514Z,9.00
2023-04-07T09:02:45.819Z,8.55
2023-04-07T09:05:14.613Z,8.75
2023-04-07T09:07:43.181Z,11.40
2023-04-07T09:10:10.374Z,9.85
2023-04-07T09:12:37.449Z,7.45
2023-04-07T09:15:06.172Z,8.93
2023-04-07T09:17:32.995Z,8.23
2023-04-07T09:20:01.048Z,8.95
2023-04-07T09:22:37.948Z,8.20
2023-04-07T09:25:18.612Z,8.38
2023-04-07T09:28:14.671Z,8.10
2023-04-07T09:30:53.053Z,9.63
2023-04-07T09:33:28.084Z,7.18
2023-04-07T09:35:54.685Z,8.85
2023-04-07T09:38:21.213Z,10.90
2023-04-07T09:40:48.453Z,7.97
2023-04-07T09:43:17.216Z,9.13
2023-04-07T09:45:43.808Z,6.88
2023-04-07T09:48:20.768Z,8.40
2023-04-07T09:50:51.897Z,6.95
2023-04-07T09:55:47.196Z,6.28
2023-04-07T09:58:16.995Z,6.70
2023-04-07T10:00:43.813Z,6.13
2023-04-07T10:03:10.996Z,5.03
2023-04-07T10:05:38.869Z,6.75
2023-04-07T10:08:06.634Z,5.28
2023-04-07T10:10:34.022Z,6.30
2023-04-07T10:13:00.742Z,5.43
2023-04-07T10:15:27.376Z,7.47
2023-04-07T10:17:54.028Z,6.50
2023-04-07T10:20:21.275Z,5.93
2023-04-07T10:22:51.358Z,6.10
2023-04-07T10:25:20.026Z,6.20
2023-04-07T10:27:55.244Z,3.95
2023-04-07T10:30:29.977Z,6.20
2023-04-07T10:32:57.158Z,5.30
2023-04-07T10:35:24.271Z,9.00
2023-04-07T10:38:11.589Z,4.63
2023-04-07T10:40:38.452Z,9.63
2023-04-07T10:43:09.717Z,5.93
2023-04-07T10:45:48.621Z,6.60
2023-04-07T10:48:16.511Z,5.72
2023-04-07T10:50:43.016Z,5.85
2023-04-07T10:53:12.323Z,8.30
2023-04-07T10:55:43.886Z,6.88
2023-04-07T10:58:25.981Z,7.70
2023-04-07T11:01:04.860Z,7.07
2023-04-07T11:03:34.080Z,7.95
2023-04-07T11:06:11.021Z,5.80
2023-04-07T11:08:39.253Z,7.70
2023-04-07T11:11:09.268Z,6.90
2023-04-07T11:13:42.346Z,8.20
2023-04-07T11:16:09.815Z,7.15
2023-04-07T11:18:37.507Z,6.35
2023-04-07T11:21:06.226Z,8.38
2023-04-07T11:23:46.095Z,5.97
2023-04-07T11:26:14.336Z,6.32
2023-04-07T11:28:48.129Z,8.25
2023-04-07T11:31:28.741Z,7.22
2023-04-07T11:33:57.154Z,7.20
2023-04-07T11:36:28.533Z,6.68
2023-04-07T11:38:56.493Z,6.78
2023-04-07T11:41:23.180Z,7.15
2023-04-07T11:43:51.042Z,6.57
2023-04-07T11:46:18.524Z,6.93
2023-04-07T11:48:45.863Z,6.00
2023-04-07T11:51:19.976Z,6.47
2023-04-07T11:53:47.638Z,6.95
2023-04-07T11:56:19.286Z,8.30
2023-04-07T11:58:49.608Z,7.72
2023-04-07T12:01:16.404Z,8.77
2023-04-07T12:04:00.218Z,10.43
2023-04-07T12:06:38.585Z,10.05
2023-04-07T12:09:05.800Z,7.88
2023-04-07T12:11:33.122Z,9.80
2023-04-07T12:13:59.673Z,6.80
2023-04-07T12:16:26.247Z,7.03
2023-04-07T12:18:53.028Z,7.80
2023-04-07T12:21:19.919Z,6.80
2023-04-07T12:23:47.938Z,7.70
2023-04-07T12:26:14.629Z,7.97
2023-04-07T12:28:41.152Z,9.73
2023-04-07T12:31:07.671Z,8.20
2023-04-07T12:33:34.143Z,8.63
2023-04-07T12:36:00.998Z,8.98
2023-04-07T12:38:28.767Z,8.50
2023-04-07T12:40:55.472Z,7.75
2023-04-07T12:43:21.966Z,8.43
2023-04-07T12:45:48.493Z,9.13
2023-04-07T12:48:16.269Z,7.85
2023-04-07T12:50:42.804Z,7.90
2023-04-07T12:53:09.387Z,10.30
2023-04-07T12:55:36.339Z,9.70
2023-04-07T12:58:03.226Z,8.80
2023-04-07T13:00:29.829Z,7.25
2023-04-07T13:02:56.655Z,9.25
2023-04-07T13:05:23.394Z,11.07
2023-04-07T13:07:50.068Z,9.63
2023-04-07T13:10:16.580Z,10.85
2023-04-07T13:12:43.260Z,9.02
2023-04-07T13:15:09.790Z,9.43
2023-04-07T13:17:39.225Z,9.95
2023-04-07T13:20:06.756Z,7.95
2023-04-07T13:22:35.735Z,7.15
2023-04-07T13:25:02.511Z,7.63
2023-04-07T13:27:29.060Z,10.68
2023-04-07T13:29:55.818Z,7.18
2023-04-07T13:32:22.350Z,7.82
2023-04-07T13:34:49.240Z,5.75
2023-04-07T13:37:16.620Z,5.97
2023-04-07T13:39:43.095Z,5.65
2023-04-07T13:42:10.913Z,6.65
2023-04-07T13:44:40.093Z,6.13
2023-04-07T13:47:06.758Z,5.93
2023-04-07T13:49:33.268Z,7.32
2023-04-07T13:51:59.756Z,7.43
2023-04-07T13:54:26.251Z,6.15
2023-04-07T13:56:52.769Z,6.10
2023-04-07T13:59:19.305Z,5.68
2023-04-07T14:01:45.938Z,6.05
2023-04-07T14:04:12.607Z,5.65
2023-04-07T14:06:39.170Z,6.10
2023-04-07T14:09:06.519Z,5.45
2023-04-07T14:11:34.782Z,6.38
2023-04-07T14:14:02.056Z,7.15
2023-04-07T14:16:28.957Z,6.05
2023-04-07T14:18:56.046Z,6.75
2023-04-07T14:21:22.974Z,7.22
2023-04-07T14:23:49.599Z,5.88
2023-04-07T14:26:16.168Z,5.70
2023-04-07T14:28:42.837Z,5.13
2023-04-07T14:31:14.265Z,5.93
2023-04-07T14:33:40.977Z,6.53
2023-04-07T14:36:07.624Z,7.53
2023-04-07T14:38:35.317Z,8.13
2023-04-07T14:43:32.668Z,8.10
2023-04-07T14:45:59.864Z,8.10
2023-04-07T14:48:26.713Z,7.65
2023-04-07T14:51:06.034Z,5.88
2023-04-07T14:53:35.114Z,8.27
2023-04-07T14:56:04.818Z,6.80
2023-04-07T14:58:31.913Z,6.25
2023-04-07T15:00:58.393Z,6.20
2023-04-07T15:03:25.186Z,6.07
2023-04-07T15:05:51.948Z,7.05
2023-04-07T15:08:18.522Z,5.90
2023-04-07T15:10:45.049Z,5.70
2023-04-07T15:13:11.624Z,6.03
2023-04-07T15:15:38.177Z,6.43
2023-04-07T15:18:04.803Z,7.82
2023-04-07T15:20:31.374Z,10.38
2023-04-07T15:22:58.031Z,6.15
2023-04-07T15:25:24.638Z,6.35
2023-04-07T15:27:51.310Z,8.85
2023-04-07T15:30:17.906Z,6.22
2023-04-07T15:33:03.006Z,7.15
2023-04-07T15:35:30.048Z,5.82
2023-04-07T15:37:56.620Z,6.25
2023-04-07T15:40:23.205Z,7.53
2023-04-07T15:42:49.769Z,6.93
2023-04-07T15:45:16.257Z,6.95
2023-04-07T15:47:42.851Z,6.47
2023-04-07T15:50:10.800Z,6.35
2023-04-07T15:52:37.500Z,6.55
2023-04-07T15:55:04.165Z,7.65
2023-04-07T15:57:30.882Z,7.53
2023-04-07T15:59:57.354Z,7.45
2023-04-07T16:02:24.076Z,5.72
2023-04-07T16:04:51.194Z,5.53
2023-04-07T16:07:17.869Z,11.75
2023-04-07T16:09:44.376Z,5.43
2023-04-07T16:12:10.905Z,5.35
2023-04-07T16:14:37.421Z,5.68
2023-04-07T16:17:03.979Z,6.28
2023-04-07T16:19:30.517Z,6.05
2023-04-07T16:21:57.002Z,6.43
2023-04-07T16:24:23.575Z,6.93
2023-04-07T16:26:51.366Z,7.75
2023-04-07T16:29:20.545Z,5.38
2023-04-07T16:31:47.076Z,6.10
2023-04-07T16:34:13.743Z,6.32
2023-04-07T16:36:41.081Z,6.45
2023-04-07T16:39:07.709Z,8.48
2023-04-07T16:41:34.209Z,6.93
2023-04-07T16:44:00.891Z,6.60
2023-04-07T16:46:29.767Z,7.00
2023-04-07T16:48:56.452Z,6.22
2023-04-07T16:51:24.160Z,8.05
2023-04-07T16:53:51.076Z,6.47
2023-04-07T16:56:19.041Z,6.70
2023-04-07T16:58:45.868Z,7.30
2023-04-07T17:01:12.477Z,6.03
2023-04-07T17:03:39.539Z,8.73
2023-04-07T17:06:06.183Z,5.60
2023-04-07T17:08:33.369Z,8.45
2023-04-07T17:11:00.014Z,6.57
2023-04-07T17:13:26.915Z,8.88
2023-04-07T17:15:54.005Z,6.85
2023-04-07T17:18:20.703Z,8.77
2023-04-07T17:20:47.227Z,8.63
2023-04-07T17:23:14.273Z,8.70
2023-04-07T17:25:40.967Z,7.53
2023-04-07T17:28:07.461Z,7.03
2023-04-07T17:30:36.413Z,6.22
2023-04-07T17:33:04.006Z,6.88
2023-04-07T17:35:30.626Z,8.13
2023-04-07T17:37:57.237Z,7.63
2023-04-07T17:40:23.740Z,7.07
2023-04-07T17:42:50.218Z,6.25
2023-04-07T17:45:17.765Z,7.03
2023-04-07T17:47:46.181Z,6.65
2023-04-07T17:50:13.211Z,7.28
2023-04-07T17:52:39.734Z,7.43
2023-04-07T17:55:07.954Z,7.25
2023-04-07T17:57:37.529Z,6.93
2023-04-07T18:00:05.828Z,7.45
2023-04-07T18:02:40.436Z,7.38
2023-04-07T18:05:07.386Z,8.00
2023-04-07T18:07:34.341Z,8.90
2023-04-07T18:10:01.417Z,7.35
2023-04-07T18:12:27.917Z,6.15
2023-04-07T18:14:54.432Z,6.90
2023-04-07T18:17:21.009Z,7.20
2023-04-07T18:19:47.521Z,7.57
2023-04-07T18:22:16.136Z,8.52
2023-04-07T18:24:42.721Z,5.88
2023-04-07T18:27:10.167Z,7.05
2023-04-07T18:29:36.673Z,6.93
2023-04-07T18:32:03.210Z,5.45
2023-04-07T18:34:29.730Z,6.35
2023-04-07T18:36:56.528Z,6.80
2023-04-07T18:39:23.084Z,6.68
2023-04-07T18:41:49.829Z,7.38
2023-04-07T18:44:16.284Z,7.03
2023-04-07T18:46:42.928Z,7.53
2023-04-07T18:49:10.264Z,7.85
2023-04-07T18:51:36.926Z,7.45
2023-04-07T18:54:03.487Z,8.18
2023-04-07T18:56:31.384Z,6.95
2023-04-07T18:58:57.966Z,7.95
2023-04-07T19:01:24.667Z,8.75
2023-04-07T19:03:51.495Z,8.15
2023-04-07T19:06:18.169Z,7.53
2023-04-07T19:08:45.301Z,7.47
2023-04-07T19:11:11.933Z,8.55
2023-04-07T19:13:38.467Z,8.93
2023-04-07T19:16:05.163Z,7.43
2023-04-07T19:18:32.068Z,7.68
2023-04-07T19:20:58.605Z,8.18
2023-04-07T19:23:25.370Z,9.10
2023-04-07T19:25:52.022Z,7.57
2023-04-07T19:28:18.727Z,8.88
2023-04-07T19:30:45.209Z,9.05
2023-04-07T19:33:12.046Z,7.70
2023-04-07T19:35:41.725Z,7.80
2023-04-07T19:38:08.256Z,7.88
2023-04-07T19:40:36.035Z,8.50
2023-04-07T19:43:02.552Z,7.75
2023-04-07T19:45:29.145Z,7.60
2023-04-07T19:47:56.826Z,6.65
2023-04-07T19:50:23.664Z,7.55
2023-04-07T19:52:53.204Z,7.90
2023-04-07T19:55:19.795Z,8.25
2023-04-07T19:57:47.067Z,7.63
2023-04-07T20:00:13.870Z,8.23
2023-04-07T20:02:49.822Z,7.35
2023-04-07T20:05:17.876Z,7.93
2023-04-07T20:07:44.700Z,8.43
2023-04-07T20:10:11.554Z,8.35
2023-04-07T20:12:38.045Z,8.93
2023-04-07T20:15:07.050Z,7.60
2023-04-07T20:17:33.618Z,9.18
2023-04-07T20:20:00.418Z,8.88
2023-04-07T20:22:26.890Z,8.02
2023-04-07T20:24:53.413Z,8.48
2023-04-07T20:27:19.949Z,8.10
2023-04-07T20:29:46.402Z,8.23
2023-04-07T20:32:12.985Z,9.40
2023-04-07T20:34:39.511Z,10.00
2023-04-07T20:37:06.014Z,6.95
2023-04-07T20:39:32.604Z,9.80
2023-04-07T20:41:59.435Z,7.57
2023-04-07T20:44:28.084Z,7.18
2023-04-07T20:46:54.657Z,11.85
2023-04-07T20:49:21.641Z,8.90
2023-04-07T20:51:48.153Z,9.00
2023-04-07T20:54:14.646Z,13.48
2023-04-07T20:56:42.877Z,9.68
2023-04-07T20:59:09.404Z,11.32
2023-04-07T21:01:36.530Z,11.95
2023-04-07T21:04:03.429Z,12.02
2023-04-07T21:06:30.009Z,10.82
2023-04-07T21:08:56.784Z,12.20
2023-04-07T21:11:23.275Z,11.43
2023-04-07T21:13:49.789Z,9.93
2023-04-07T21:16:16.458Z,14.18
2023-04-07T21:18:43.033Z,12.23
2023-04-07T21:21:09.595Z,14.00
2023-04-07T21:23:36.266Z,14.30
2023-04-07T21:26:03.296Z,13.57
2023-04-07T21:28:29.975Z,12.75
2023-04-07T21:30:56.808Z,12.40
2023-04-07T21:33:23.414Z,13.05
2023-04-07T21:35:50.907Z,14.90
2023-04-07T21:38:17.405Z,13.68
2023-04-07T21:40:43.935Z,13.68
2023-04-07T21:43:10.454Z,17.17
2023-04-07T21:45:36.957Z,14.38
2023-04-07T21:48:04.292Z,17.48
2023-04-07T21:50:31.198Z,15.63
2023-04-07T21:52:57.670Z,14.82
2023-04-07T21:55:24.193Z,14.32
2023-04-07T21:57:50.707Z,17.45
2023-04-07T22:00:17.324Z,15.88
2023-04-07T22:02:45.228Z,15.90
2023-04-07T22:05:12.099Z,17.35
2023-04-07T22:07:38.595Z,17.63
2023-04-07T22:10:05.593Z,16.73
2023-04-07T22:12:32.063Z,18.50
2023-04-07T22:14:58.571Z,18.83
2023-04-07T22:17:25.528Z,15.43
2023-04-07T22:19:52.104Z,18.30
2023-04-07T22:22:18.727Z,15.73
2023-04-07T22:24:45.389Z,16.75
2023-04-07T22:27:11.883Z,18.40
2023-04-07T22:29:38.368Z,20.90
2023-04-07T22:32:04.977Z,14.98
2023-04-07T22:34:31.489Z,16.92
2023-04-07T22:36:58.005Z,18.15
2023-04-07T22:39:24.552Z,18.27
2023-04-07T22:41:51.035Z,15.90
2023-04-07T22:44:17.568Z,15.32
2023-04-07T22:46:44.155Z,16.92
2023-04-07T22:49:10.968Z,17.15
2023-04-07T22:51:37.498Z,16.17
2023-04-07T22:54:04.044Z,14.68
2023-04-07T22:56:31.039Z,18.05
2023-04-07T22:59:05.205Z,16.95
2023-04-07T23:01:32.252Z,15.70
2023-04-07T23:03:59.100Z,14.93
2023-04-07T23:06:28.503Z,16.55
2023-04-07T23:08:55.732Z,15.65
2023-04-07T23:11:22.678Z,18.48
2023-04-07T23:13:49.494Z,15.30
2023-04-07T23:16:16.282Z,16.83
2023-04-07T23:18:42.954Z,17.10
2023-04-07T23:21:09.786Z,18.92
2023-04-07T23:23:36.608Z,16.17
2023-04-07T23:26:03.129Z,16.38
2023-04-07T23:28:29.694Z,17.80
2023-04-07T23:30:57.044Z,18.60
2023-04-07T23:33:23.751Z,20.73
2023-04-07T23:35:50.585Z,18.80
2023-04-07T23:38:17.184Z,16.23
2023-04-07T23:40:43.746Z,15.50
2023-04-07T23:43:10.752Z,14.88
2023-04-07T23:45:37.261Z,15.55
2023-04-07T23:48:03.809Z,15.73
2023-04-07T23:50:30.918Z,16.92
2023-04-07T23:52:57.442Z,14.38
2023-04-07T23:55:23.949Z,16.85
2023-04-07T23:57:50.628Z,15.45
